Scottish Viking — IBDZ — position and weather

sailwx.info

Track history (hours):
 
Tides and Currents Weather Stations Pressure Air Temp Water Temp Dewpoint Dewpoint Depression Visibility Wind Speed Wind Dir Waves Ship Positions

Scottish Viking

Last reported at 2016-Jul-28 00:05 UTC. Time now 2016-Jul-29 19:44 UTC.
Position N 58°13' E 019°08'.

Length 186 m; draft 6.5 m.

Type: Passenger vessel. MMSI: 247265800.

Date/timePositionNaut miles runAvg speedWind from/ knotsBaromVisibWave heightAir tempDewpointWater temp
2016-Jul-28 00:05N 58°13' E 019°08'3613.9
2016-Jul-27 21:30N 58°39' E 018°20'1313.3
2016-Jul-27 20:33N 58°48' E 018°03'121 6.7
2016-Jul-27 02:25N 57°34' E 021°05'11414.2
2016-Jul-26 18:24N 58°44' E 018°13'21 0.6
2016-Jul-25 09:31N 58°28' E 018°41'1414.5
2016-Jul-25 08:34N 58°38' E 018°21'1413.7
2016-Jul-25 07:31N 58°48' E 018°02'4 1.4
2016-Jul-25 04:19N 58°52' E 018°01'1619.7
2016-Jul-25 03:29N 58°39' E 018°20'2220.8
2016-Jul-25 02:25N 58°24' E 018°50'2120.5
2016-Jul-25 01:24N 58°10' E 019°20'2 0.1
2016-Jul-24 11:04N 58°08' E 019°22'3120.3
2016-Jul-24 09:31N 58°29' E 018°38'2020.4
2016-Jul-24 08:34N 58°43' E 018°12'13 3.1
2016-Jul-24 04:11N 58°54' E 017°58'1 1.4
2016-Jul-24 03:34N 58°55' E 017°59'10 9.9
2016-Jul-24 02:33N 58°46' E 018°07'1514.7
2016-Jul-24 01:33N 58°35' E 018°26'9 0.3
2016-Jul-22 21:05N 58°42' E 018°14'814.2
2016-Jul-22 20:33N 58°48' E 018°04'14 0.9
2016-Jul-22 04:22N 58°37' E 018°23'87 3.5
2016-Jul-21 03:32N 57°45' E 020°33'1313.7
2016-Jul-21 02:33N 57°51' E 020°12'7514.3
2016-Jul-20 21:18N 58°38' E 018°20'1114.5
2016-Jul-20 20:33N 58°46' E 018°06'8 2.0
2016-Jul-20 16:26N 58°54' E 018°01'1618.2
2016-Jul-20 15:33N 58°40' E 018°18'2420.8
2016-Jul-20 14:23N 58°23' E 018°51'89 7.6
2016-Jul-20 02:33N 57°33' E 021°11'10314.1
2016-Jul-19 19:13N 58°33' E 018°31'1114.6
2016-Jul-19 18:29N 58°40' E 018°17'1213.3
2016-Jul-19 17:33N 58°49' E 018°00'3 0.2
2016-Jul-19 04:20N 58°52' E 018°01'  
Track history (hours):
 
Tides and Currents Weather Stations Pressure Air Temp Water Temp Dewpoint Dewpoint Depression Visibility Wind Speed Wind Dir Waves Ship Positions

Scottish Viking

Last reported at 2016-Jul-28 00:05 UTC. Time now 2016-Jul-29 19:44 UTC.
Position N 58°13' E 019°08'.

Length 186 m; draft 6.5 m.

Type: Passenger vessel. MMSI: 247265800.

Date/timePositionNaut miles runAvg speedWind from/ knotsBaromVisibWave heightAir tempDewpointWater temp
2016-Jul-28 00:05N 58°13' E 019°08'3613.9
2016-Jul-27 21:30N 58°39' E 018°20'1313.3
2016-Jul-27 20:33N 58°48' E 018°03'121 6.7
2016-Jul-27 02:25N 57°34' E 021°05'11414.2
2016-Jul-26 18:24N 58°44' E 018°13'21 0.6
2016-Jul-25 09:31N 58°28' E 018°41'1414.5
2016-Jul-25 08:34N 58°38' E 018°21'1413.7
2016-Jul-25 07:31N 58°48' E 018°02'4 1.4
2016-Jul-25 04:19N 58°52' E 018°01'1619.7
2016-Jul-25 03:29N 58°39' E 018°20'2220.8
2016-Jul-25 02:25N 58°24' E 018°50'2120.5
2016-Jul-25 01:24N 58°10' E 019°20'2 0.1
2016-Jul-24 11:04N 58°08' E 019°22'3120.3
2016-Jul-24 09:31N 58°29' E 018°38'2020.4
2016-Jul-24 08:34N 58°43' E 018°12'13 3.1
2016-Jul-24 04:11N 58°54' E 017°58'1 1.4
2016-Jul-24 03:34N 58°55' E 017°59'10 9.9
2016-Jul-24 02:33N 58°46' E 018°07'1514.7
2016-Jul-24 01:33N 58°35' E 018°26'9 0.3
2016-Jul-22 21:05N 58°42' E 018°14'814.2
2016-Jul-22 20:33N 58°48' E 018°04'14 0.9
2016-Jul-22 04:22N 58°37' E 018°23'87 3.5
2016-Jul-21 03:32N 57°45' E 020°33'1313.7
2016-Jul-21 02:33N 57°51' E 020°12'7514.3
2016-Jul-20 21:18N 58°38' E 018°20'1114.5
2016-Jul-20 20:33N 58°46' E 018°06'8 2.0
2016-Jul-20 16:26N 58°54' E 018°01'1618.2
2016-Jul-20 15:33N 58°40' E 018°18'2420.8
2016-Jul-20 14:23N 58°23' E 018°51'89 7.6
2016-Jul-20 02:33N 57°33' E 021°11'10314.1
2016-Jul-19 19:13N 58°33' E 018°31'1114.6
2016-Jul-19 18:29N 58°40' E 018°17'1213.3
2016-Jul-19 17:33N 58°49' E 018°00'3 0.2
2016-Jul-19 04:20N 58°52' E 018°01'  

Dump ship's entire track history